createdAt,value
2022-08-17T00:01:40.910Z,21.34
2022-08-17T00:07:53.154Z,21.31
2022-08-17T00:14:16.165Z,21.3
2022-08-17T00:20:36.142Z,21.3
2022-08-17T00:26:59.146Z,21.33
2022-08-17T00:33:19.146Z,21.33
2022-08-17T00:39:42.208Z,21.32
2022-08-17T00:46:02.170Z,21.3
2022-08-17T00:52:25.157Z,21.29
2022-08-17T00:58:45.167Z,21.27
2022-08-17T01:05:08.141Z,21.26
2022-08-17T01:11:28.189Z,21.23
2022-08-17T01:17:51.145Z,21.2
2022-08-17T01:24:11.161Z,21.16
2022-08-17T01:30:57.619Z,21.13
2022-08-17T01:36:54.159Z,21.1
2022-08-17T01:43:17.176Z,21.06
2022-08-17T01:49:37.147Z,21.01
2022-08-17T01:56:00.189Z,20.91
2022-08-17T02:02:30.192Z,20.88
2022-08-17T02:09:02.076Z,20.85
2022-08-17T02:15:03.156Z,20.82
2022-08-17T02:21:26.192Z,20.75
2022-08-17T02:27:46.153Z,20.66
2022-08-17T02:34:09.159Z,20.57
2022-08-17T02:40:35.837Z,20.45
2022-08-17T02:46:52.150Z,20.36
2022-08-17T02:53:12.195Z,20.27
2022-08-17T02:59:35.147Z,20.18
2022-08-17T03:05:55.172Z,20.11
2022-08-17T03:12:18.166Z,20.08
2022-08-17T03:18:38.167Z,20.04
2022-08-17T03:25:01.148Z,20
2022-08-17T03:31:21.168Z,19.93
2022-08-17T03:37:44.154Z,19.85
2022-08-17T03:44:04.161Z,19.83
2022-08-17T03:59:57.018Z,19.75
2022-08-17T04:06:17.164Z,19.73
2022-08-17T04:12:40.159Z,19.77
2022-08-17T04:19:00.173Z,19.85
2022-08-17T04:25:23.141Z,19.87
2022-08-17T04:31:43.167Z,19.86
2022-08-17T04:38:06.192Z,19.85
2022-08-17T04:44:28.307Z,19.86
2022-08-17T04:50:49.234Z,19.9
2022-08-17T04:57:09.169Z,19.95
2022-08-17T05:03:32.191Z,19.95
2022-08-17T05:09:52.205Z,19.98
2022-08-17T05:16:15.167Z,20
2022-08-17T05:22:35.201Z,20.03
2022-08-17T05:28:58.412Z,20.11
2022-08-17T05:35:18.224Z,20.19
2022-08-17T05:41:41.176Z,20.27
2022-08-17T05:48:01.156Z,20.36
2022-08-17T05:54:24.165Z,20.5
2022-08-17T06:00:44.175Z,20.66
2022-08-17T06:07:07.180Z,20.82
2022-08-17T06:13:27.155Z,20.98
2022-08-17T06:19:50.159Z,21.11
2022-08-17T06:26:10.166Z,21.27
2022-08-17T06:32:33.149Z,21.46
2022-08-17T06:38:53.183Z,21.67
2022-08-17T06:45:16.150Z,21.89
2022-08-17T06:51:36.212Z,22.09
2022-08-17T06:57:59.144Z,22.34
2022-08-17T07:04:19.190Z,22.47
2022-08-17T07:10:42.159Z,22.6
2022-08-17T07:17:02.170Z,22.76
2022-08-17T07:23:25.162Z,22.94
2022-08-17T07:29:45.155Z,23.27
2022-08-17T07:36:08.203Z,23.59
2022-08-17T07:42:28.154Z,23.86
2022-08-17T07:48:51.179Z,24.15
2022-08-17T07:55:11.165Z,24.31
2022-08-17T08:01:39.773Z,24.46
2022-08-17T08:07:54.171Z,24.51
2022-08-17T08:14:17.148Z,24.59
2022-08-17T08:20:51.591Z,24.56
2022-08-17T08:27:00.146Z,24.5
2022-08-17T08:33:20.171Z,24.45
2022-08-17T08:39:43.239Z,24.37
2022-08-17T08:46:03.145Z,24.29
2022-08-17T08:52:26.177Z,24.15
2022-08-17T08:58:46.149Z,24.05
2022-08-17T09:05:16.338Z,23.98
2022-08-17T09:11:29.155Z,23.93
2022-08-17T09:18:03.649Z,23.82
2022-08-17T09:40:40.651Z,23.67
2022-08-17T09:47:00.150Z,23.69
2022-08-17T09:53:23.174Z,23.8
2022-08-17T09:59:43.283Z,24.15
2022-08-17T10:06:06.452Z,24.4
2022-08-17T10:12:28.303Z,24.63
2022-08-17T10:18:49.167Z,24.86
2022-08-17T10:25:21.996Z,25.21
2022-08-17T10:31:35.036Z,25.49
2022-08-17T10:37:52.311Z,25.7
2022-08-17T10:44:37.738Z,25.88
2022-08-17T10:50:35.151Z,25.7
2022-08-17T10:56:58.191Z,25.63
2022-08-17T11:03:18.193Z,25.67
2022-08-17T11:09:41.179Z,25.7
2022-08-17T11:16:04.785Z,25.89
2022-08-17T11:22:24.149Z,25.94
2022-08-17T11:28:44.169Z,26.06
2022-08-17T11:35:07.152Z,26.1
2022-08-17T11:41:27.172Z,26.17
2022-08-17T11:48:09.307Z,26.35
2022-08-17T12:00:33.178Z,26.85
2022-08-17T12:06:53.150Z,27.5
2022-08-17T12:13:16.173Z,28.12
2022-08-17T12:19:36.164Z,27.97
2022-08-17T12:25:59.353Z,28.23
2022-08-17T12:32:19.167Z,28.7
2022-08-17T12:38:42.445Z,28.56
2022-08-17T12:45:02.483Z,28.65
2022-08-17T12:51:25.159Z,29.1
2022-08-17T12:57:45.155Z,29.65
2022-08-17T13:04:08.167Z,29.42
2022-08-17T13:10:32.363Z,29.41
2022-08-17T13:16:51.191Z,28.73
2022-08-17T13:23:12.419Z,28.38
2022-08-17T13:29:34.183Z,28.54
2022-08-17T13:35:54.171Z,28.39
2022-08-17T13:42:21.846Z,28.04
2022-08-17T13:48:37.190Z,28.08
2022-08-17T13:55:00.156Z,28.32
2022-08-17T14:01:20.189Z,28.55
2022-08-17T14:07:43.262Z,28.26
2022-08-17T14:14:03.148Z,28.29
2022-08-17T14:20:26.181Z,28.36
2022-08-17T14:26:46.146Z,28.31
2022-08-17T14:33:09.151Z,28.52
2022-08-17T14:39:29.201Z,28.88
2022-08-17T14:45:52.147Z,28.88
2022-08-17T14:52:12.198Z,28.9
2022-08-17T14:58:35.159Z,28.37
2022-08-17T15:04:55.163Z,28.1
2022-08-17T15:29:15.573Z,27.77
2022-08-17T15:35:35.156Z,27.69
2022-08-17T15:41:58.789Z,27.95
2022-08-17T15:48:18.150Z,28.11
2022-08-17T15:54:41.168Z,27.95
2022-08-17T16:01:14.464Z,28.15
2022-08-17T16:07:26.693Z,28.42
2022-08-17T16:13:47.289Z,28.72
2022-08-17T16:20:07.148Z,28.54
2022-08-17T16:26:27.158Z,28.39
2022-08-17T16:32:50.371Z,28.73
2022-08-17T16:39:10.155Z,29.02
2022-08-17T16:45:33.263Z,28.97
2022-08-17T16:51:53.159Z,28.76
2022-08-17T16:58:16.231Z,28.41
2022-08-17T17:04:36.165Z,28.5
2022-08-17T17:10:59.191Z,28.44
2022-08-17T17:17:19.233Z,28.21
2022-08-17T17:23:42.180Z,28
2022-08-17T17:30:02.149Z,27.78
2022-08-17T17:36:25.208Z,27.42
2022-08-17T17:42:45.173Z,27.16
2022-08-17T17:49:08.194Z,26.93
2022-08-17T17:55:28.258Z,26.72
2022-08-17T18:01:51.303Z,26.5
2022-08-17T18:08:11.286Z,26.36
2022-08-17T18:14:34.190Z,26.23
2022-08-17T18:20:55.901Z,26.1
2022-08-17T18:27:17.197Z,25.94
2022-08-17T18:33:37.353Z,25.76
2022-08-17T18:40:00.442Z,25.6
2022-08-17T18:46:28.095Z,25.42
2022-08-17T18:52:43.175Z,25.24
2022-08-17T18:59:03.195Z,25.07
2022-08-17T19:05:26.202Z,24.95
2022-08-17T19:11:46.417Z,24.74
2022-08-17T19:18:13.385Z,24.6
2022-08-17T19:24:29.233Z,24.45
2022-08-17T19:30:52.462Z,24.34
2022-08-17T19:37:12.139Z,24.23
2022-08-17T19:43:35.200Z,24.09
2022-08-17T19:49:55.159Z,23.94
2022-08-17T19:56:18.199Z,23.82
2022-08-17T20:02:38.165Z,23.69
2022-08-17T20:09:01.180Z,23.56
2022-08-17T20:15:21.139Z,23.48
2022-08-17T20:21:44.150Z,23.38
2022-08-17T20:28:06.126Z,23.29
2022-08-17T20:44:14.230Z,22.94
2022-08-17T20:50:34.166Z,22.86
2022-08-17T20:56:57.146Z,22.74
2022-08-17T21:03:17.165Z,22.53
2022-08-17T21:09:40.154Z,22.39
2022-08-17T21:16:00.166Z,22.21
2022-08-17T21:22:23.142Z,22.04
2022-08-17T21:28:55.039Z,21.9
2022-08-17T21:35:06.158Z,21.73
2022-08-17T21:41:26.150Z,21.63
2022-08-17T21:47:49.188Z,21.45
2022-08-17T21:54:09.140Z,21.38
2022-08-17T22:00:32.180Z,21.23
2022-08-17T22:23:30.468Z,20.72
2022-08-17T22:29:50.149Z,20.76
2022-08-17T22:36:13.172Z,20.77
2022-08-17T22:42:33.150Z,20.74
2022-08-17T22:48:56.161Z,20.72
2022-08-17T22:55:16.184Z,20.6
2022-08-17T23:01:39.164Z,20.46
2022-08-17T23:07:59.186Z,20.39
2022-08-17T23:14:22.150Z,20.39
2022-08-17T23:20:42.140Z,20.24
2022-08-17T23:27:05.163Z,20.24
2022-08-17T23:33:25.151Z,20.3
2022-08-17T23:39:48.233Z,20.2
2022-08-17T23:46:08.157Z,20.14
2022-08-17T23:52:31.193Z,20.11
2022-08-17T23:58:51.368Z,20.03
